sensor_id;sensor_type;location;lat;lon;timestamp;P1;durP1;ratioP1;P2;durP2;ratioP2
14040;SDS011;7095;51.388;6.196;2023-02-10T00:02:21;72.47;;;39.07;;
14040;SDS011;7095;51.388;6.196;2023-02-10T00:04:50;66.40;;;37.07;;
14040;SDS011;7095;51.388;6.196;2023-02-10T00:07:20;67.03;;;36.80;;
14040;SDS011;7095;51.388;6.196;2023-02-10T00:09:48;61.60;;;36.83;;
14040;SDS011;7095;51.388;6.196;2023-02-10T00:12:17;74.77;;;36.03;;
14040;SDS011;7095;51.388;6.196;2023-02-10T00:14:45;65.63;;;37.23;;
14040;SDS011;7095;51.388;6.196;2023-02-10T00:17:14;56.07;;;35.23;;
14040;SDS011;7095;51.388;6.196;2023-02-10T00:19:44;60.33;;;36.97;;
14040;SDS011;7095;51.388;6.196;2023-02-10T00:22:12;68.30;;;37.57;;
14040;SDS011;7095;51.388;6.196;2023-02-10T00:24:42;71.47;;;38.33;;
14040;SDS011;7095;51.388;6.196;2023-02-10T00:27:10;60.73;;;38.23;;
14040;SDS011;7095;51.388;6.196;2023-02-10T00:29:39;63.23;;;36.13;;
14040;SDS011;7095;51.388;6.196;2023-02-10T00:32:07;67.03;;;38.63;;
14040;SDS011;7095;51.388;6.196;2023-02-10T00:34:39;66.13;;;38.57;;
14040;SDS011;7095;51.388;6.196;2023-02-10T00:37:07;67.63;;;38.03;;
14040;SDS011;7095;51.388;6.196;2023-02-10T00:39:35;68.53;;;38.50;;
14040;SDS011;7095;51.388;6.196;2023-02-10T00:42:05;64.03;;;38.67;;
14040;SDS011;7095;51.388;6.196;2023-02-10T00:44:34;65.23;;;40.67;;
14040;SDS011;7095;51.388;6.196;2023-02-10T00:47:03;68.27;;;38.13;;
14040;SDS011;7095;51.388;6.196;2023-02-10T00:49:32;64.63;;;37.43;;
14040;SDS011;7095;51.388;6.196;2023-02-10T00:52:00;73.73;;;39.37;;
14040;SDS011;7095;51.388;6.196;2023-02-10T00:54:29;68.20;;;39.63;;
14040;SDS011;7095;51.388;6.196;2023-02-10T00:56:58;67.37;;;38.83;;
14040;SDS011;7095;51.388;6.196;2023-02-10T00:59:27;63.50;;;36.30;;
14040;SDS011;7095;51.388;6.196;2023-02-10T01:01:56;70.53;;;40.43;;
14040;SDS011;7095;51.388;6.196;2023-02-10T01:04:24;69.73;;;39.57;;
14040;SDS011;7095;51.388;6.196;2023-02-10T01:06:54;71.30;;;39.27;;
14040;SDS011;7095;51.388;6.196;2023-02-10T01:09:22;68.97;;;40.40;;
14040;SDS011;7095;51.388;6.196;2023-02-10T01:11:51;71.03;;;39.07;;
14040;SDS011;7095;51.388;6.196;2023-02-10T01:14:19;62.83;;;38.03;;
14040;SDS011;7095;51.388;6.196;2023-02-10T01:16:49;74.73;;;39.53;;
14040;SDS011;7095;51.388;6.196;2023-02-10T01:19:18;64.13;;;39.10;;
14040;SDS011;7095;51.388;6.196;2023-02-10T01:21:47;72.00;;;39.53;;
14040;SDS011;7095;51.388;6.196;2023-02-10T01:24:15;67.97;;;39.30;;
14040;SDS011;7095;51.388;6.196;2023-02-10T01:26:44;63.70;;;38.00;;
14040;SDS011;7095;51.388;6.196;2023-02-10T01:29:12;64.27;;;38.10;;
14040;SDS011;7095;51.388;6.196;2023-02-10T01:31:41;71.10;;;41.03;;
14040;SDS011;7095;51.388;6.196;2023-02-10T01:34:11;68.17;;;38.47;;
14040;SDS011;7095;51.388;6.196;2023-02-10T01:36:40;69.10;;;38.23;;
14040;SDS011;7095;51.388;6.196;2023-02-10T01:39:08;71.07;;;40.03;;
14040;SDS011;7095;51.388;6.196;2023-02-10T01:41:36;69.93;;;41.80;;
14040;SDS011;7095;51.388;6.196;2023-02-10T01:44:06;70.40;;;39.80;;
14040;SDS011;7095;51.388;6.196;2023-02-10T01:46:50;72.60;;;41.63;;
14040;SDS011;7095;51.388;6.196;2023-02-10T01:49:21;72.03;;;42.07;;
14040;SDS011;7095;51.388;6.196;2023-02-10T01:51:52;72.27;;;39.90;;
14040;SDS011;7095;51.388;6.196;2023-02-10T01:54:26;68.17;;;39.47;;
14040;SDS011;7095;51.388;6.196;2023-02-10T01:56:59;75.67;;;40.30;;
14040;SDS011;7095;51.388;6.196;2023-02-10T01:59:30;63.60;;;39.47;;
14040;SDS011;7095;51.388;6.196;2023-02-10T02:02:03;69.77;;;41.60;;
14040;SDS011;7095;51.388;6.196;2023-02-10T02:04:36;70.53;;;41.13;;
14040;SDS011;7095;51.388;6.196;2023-02-10T02:07:09;68.73;;;41.20;;
14040;SDS011;7095;51.388;6.196;2023-02-10T02:09:37;72.07;;;40.13;;
14040;SDS011;7095;51.388;6.196;2023-02-10T02:12:08;67.93;;;39.77;;
14040;SDS011;7095;51.388;6.196;2023-02-10T02:14:47;67.33;;;40.40;;
14040;SDS011;7095;51.388;6.196;2023-02-10T02:17:22;69.07;;;39.07;;
14040;SDS011;7095;51.388;6.196;2023-02-10T02:23:15;70.63;;;39.93;;
14040;SDS011;7095;51.388;6.196;2023-02-10T02:26:01;68.40;;;39.50;;
14040;SDS011;7095;51.388;6.196;2023-02-10T02:28:50;70.77;;;40.60;;
14040;SDS011;7095;51.388;6.196;2023-02-10T02:31:41;72.87;;;42.83;;
14040;SDS011;7095;51.388;6.196;2023-02-10T02:34:18;73.70;;;39.60;;
14040;SDS011;7095;51.388;6.196;2023-02-10T02:36:57;76.17;;;40.63;;
14040;SDS011;7095;51.388;6.196;2023-02-10T02:39:31;78.07;;;42.43;;
14040;SDS011;7095;51.388;6.196;2023-02-10T02:42:13;71.63;;;39.90;;
14040;SDS011;7095;51.388;6.196;2023-02-10T02:44:45;66.13;;;39.33;;
14040;SDS011;7095;51.388;6.196;2023-02-10T02:47:21;66.87;;;39.73;;
14040;SDS011;7095;51.388;6.196;2023-02-10T02:50:06;74.67;;;40.13;;
14040;SDS011;7095;51.388;6.196;2023-02-10T02:52:45;71.50;;;39.43;;
14040;SDS011;7095;51.388;6.196;2023-02-10T02:55:24;70.37;;;41.27;;
14040;SDS011;7095;51.388;6.196;2023-02-10T02:58:00;69.97;;;39.27;;
14040;SDS011;7095;51.388;6.196;2023-02-10T03:00:35;69.63;;;39.67;;
14040;SDS011;7095;51.388;6.196;2023-02-10T03:03:08;74.60;;;40.83;;
14040;SDS011;7095;51.388;6.196;2023-02-10T03:05:38;71.20;;;40.73;;
14040;SDS011;7095;51.388;6.196;2023-02-10T03:08:07;80.70;;;41.87;;
14040;SDS011;7095;51.388;6.196;2023-02-10T03:10:35;82.80;;;42.70;;
14040;SDS011;7095;51.388;6.196;2023-02-10T03:13:04;76.70;;;43.33;;
14040;SDS011;7095;51.388;6.196;2023-02-10T03:15:33;83.20;;;43.53;;
14040;SDS011;7095;51.388;6.196;2023-02-10T03:18:02;85.93;;;43.63;;
14040;SDS011;7095;51.388;6.196;2023-02-10T03:20:32;81.47;;;42.43;;
14040;SDS011;7095;51.388;6.196;2023-02-10T03:23:01;83.57;;;42.47;;
14040;SDS011;7095;51.388;6.196;2023-02-10T03:25:29;86.63;;;44.03;;
14040;SDS011;7095;51.388;6.196;2023-02-10T03:28:00;85.27;;;44.33;;
14040;SDS011;7095;51.388;6.196;2023-02-10T03:30:29;92.43;;;45.50;;
14040;SDS011;7095;51.388;6.196;2023-02-10T03:32:58;88.17;;;46.23;;
14040;SDS011;7095;51.388;6.196;2023-02-10T03:35:26;88.97;;;43.67;;
14040;SDS011;7095;51.388;6.196;2023-02-10T03:37:56;85.83;;;44.73;;
14040;SDS011;7095;51.388;6.196;2023-02-10T03:40:24;83.83;;;43.87;;
14040;SDS011;7095;51.388;6.196;2023-02-10T03:42:53;83.60;;;43.17;;
14040;SDS011;7095;51.388;6.196;2023-02-10T03:45:21;84.93;;;44.43;;
14040;SDS011;7095;51.388;6.196;2023-02-10T03:47:50;76.20;;;42.60;;
14040;SDS011;7095;51.388;6.196;2023-02-10T03:50:18;85.10;;;45.07;;
14040;SDS011;7095;51.388;6.196;2023-02-10T03:52:46;87.47;;;45.87;;
14040;SDS011;7095;51.388;6.196;2023-02-10T03:55:17;81.00;;;45.63;;
14040;SDS011;7095;51.388;6.196;2023-02-10T03:57:46;85.10;;;44.10;;
14040;SDS011;7095;51.388;6.196;2023-02-10T04:00:15;83.53;;;43.73;;
14040;SDS011;7095;51.388;6.196;2023-02-10T04:02:44;86.07;;;44.47;;
14040;SDS011;7095;51.388;6.196;2023-02-10T04:05:13;86.27;;;43.97;;
14040;SDS011;7095;51.388;6.196;2023-02-10T04:07:41;84.87;;;43.17;;
14040;SDS011;7095;51.388;6.196;2023-02-10T04:10:10;84.47;;;43.63;;
14040;SDS011;7095;51.388;6.196;2023-02-10T04:12:40;87.30;;;45.77;;
14040;SDS011;7095;51.388;6.196;2023-02-10T04:15:08;83.73;;;44.53;;
14040;SDS011;7095;51.388;6.196;2023-02-10T04:17:37;84.23;;;43.43;;
14040;SDS011;7095;51.388;6.196;2023-02-10T04:20:05;91.70;;;45.17;;
14040;SDS011;7095;51.388;6.196;2023-02-10T04:22:34;82.23;;;43.47;;
14040;SDS011;7095;51.388;6.196;2023-02-10T04:25:03;98.33;;;47.07;;
14040;SDS011;7095;51.388;6.196;2023-02-10T04:27:32;93.37;;;46.37;;
14040;SDS011;7095;51.388;6.196;2023-02-10T04:30:02;83.67;;;44.80;;
14040;SDS011;7095;51.388;6.196;2023-02-10T04:32:31;91.47;;;45.90;;
14040;SDS011;7095;51.388;6.196;2023-02-10T04:34:59;84.97;;;44.60;;
14040;SDS011;7095;51.388;6.196;2023-02-10T04:37:28;91.33;;;46.17;;
14040;SDS011;7095;51.388;6.196;2023-02-10T04:39:57;86.90;;;46.10;;
14040;SDS011;7095;51.388;6.196;2023-02-10T04:42:25;86.90;;;45.17;;
14040;SDS011;7095;51.388;6.196;2023-02-10T04:44:57;105.93;;;47.33;;
14040;SDS011;7095;51.388;6.196;2023-02-10T04:47:28;85.20;;;45.83;;
14040;SDS011;7095;51.388;6.196;2023-02-10T04:49:56;94.27;;;45.73;;
14040;SDS011;7095;51.388;6.196;2023-02-10T04:52:25;94.63;;;48.33;;
14040;SDS011;7095;51.388;6.196;2023-02-10T04:54:53;96.63;;;47.03;;
14040;SDS011;7095;51.388;6.196;2023-02-10T04:57:21;87.00;;;47.10;;
14040;SDS011;7095;51.388;6.196;2023-02-10T04:59:50;96.07;;;47.67;;
14040;SDS011;7095;51.388;6.196;2023-02-10T05:02:18;94.80;;;47.50;;
14040;SDS011;7095;51.388;6.196;2023-02-10T05:04:48;93.40;;;48.53;;
14040;SDS011;7095;51.388;6.196;2023-02-10T05:07:17;90.23;;;46.03;;
14040;SDS011;7095;51.388;6.196;2023-02-10T05:09:45;91.30;;;47.70;;
14040;SDS011;7095;51.388;6.196;2023-02-10T05:12:14;100.93;;;49.57;;
14040;SDS011;7095;51.388;6.196;2023-02-10T05:14:42;86.83;;;46.63;;
14040;SDS011;7095;51.388;6.196;2023-02-10T05:17:10;92.93;;;49.40;;
14040;SDS011;7095;51.388;6.196;2023-02-10T05:19:39;93.13;;;48.80;;
14040;SDS011;7095;51.388;6.196;2023-02-10T05:22:09;90.73;;;47.83;;
14040;SDS011;7095;51.388;6.196;2023-02-10T05:24:37;106.10;;;48.50;;
14040;SDS011;7095;51.388;6.196;2023-02-10T05:27:06;97.27;;;46.77;;
14040;SDS011;7095;51.388;6.196;2023-02-10T05:29:34;101.27;;;46.70;;
14040;SDS011;7095;51.388;6.196;2023-02-10T05:32:03;87.63;;;46.77;;
14040;SDS011;7095;51.388;6.196;2023-02-10T05:34:31;93.03;;;49.63;;
14040;SDS011;7095;51.388;6.196;2023-02-10T05:37:00;99.90;;;50.57;;
14040;SDS011;7095;51.388;6.196;2023-02-10T05:39:29;96.27;;;47.17;;
14040;SDS011;7095;51.388;6.196;2023-02-10T05:41:58;93.67;;;47.57;;
14040;SDS011;7095;51.388;6.196;2023-02-10T05:44:27;95.90;;;47.33;;
14040;SDS011;7095;51.388;6.196;2023-02-10T05:46:56;85.37;;;45.90;;
14040;SDS011;7095;51.388;6.196;2023-02-10T05:49:25;89.37;;;48.47;;
14040;SDS011;7095;51.388;6.196;2023-02-10T05:51:54;95.47;;;47.77;;
14040;SDS011;7095;51.388;6.196;2023-02-10T05:54:22;95.57;;;47.03;;
14040;SDS011;7095;51.388;6.196;2023-02-10T05:56:52;106.97;;;48.80;;
14040;SDS011;7095;51.388;6.196;2023-02-10T05:59:21;95.67;;;49.43;;
14040;SDS011;7095;51.388;6.196;2023-02-10T06:01:50;96.17;;;47.80;;
14040;SDS011;7095;51.388;6.196;2023-02-10T06:04:18;90.50;;;46.00;;
14040;SDS011;7095;51.388;6.196;2023-02-10T06:06:47;90.53;;;46.10;;
14040;SDS011;7095;51.388;6.196;2023-02-10T06:09:16;87.30;;;46.67;;
14040;SDS011;7095;51.388;6.196;2023-02-10T06:11:44;96.17;;;48.07;;
14040;SDS011;7095;51.388;6.196;2023-02-10T06:14:15;87.17;;;46.60;;
14040;SDS011;7095;51.388;6.196;2023-02-10T06:16:43;92.87;;;49.03;;
14040;SDS011;7095;51.388;6.196;2023-02-10T06:19:12;94.93;;;48.13;;
14040;SDS011;7095;51.388;6.196;2023-02-10T06:21:40;96.97;;;48.13;;
14040;SDS011;7095;51.388;6.196;2023-02-10T06:24:08;91.83;;;47.37;;
14040;SDS011;7095;51.388;6.196;2023-02-10T06:26:38;94.60;;;47.70;;
14040;SDS011;7095;51.388;6.196;2023-02-10T06:29:06;97.53;;;47.47;;
14040;SDS011;7095;51.388;6.196;2023-02-10T06:31:44;106.60;;;48.77;;
14040;SDS011;7095;51.388;6.196;2023-02-10T06:34:13;94.50;;;49.30;;
14040;SDS011;7095;51.388;6.196;2023-02-10T06:36:41;94.73;;;48.10;;
14040;SDS011;7095;51.388;6.196;2023-02-10T06:39:10;101.33;;;46.90;;
14040;SDS011;7095;51.388;6.196;2023-02-10T06:41:38;103.27;;;49.13;;
14040;SDS011;7095;51.388;6.196;2023-02-10T06:44:07;102.23;;;49.37;;
14040;SDS011;7095;51.388;6.196;2023-02-10T06:46:36;99.77;;;48.10;;
14040;SDS011;7095;51.388;6.196;2023-02-10T06:49:06;94.90;;;48.43;;
14040;SDS011;7095;51.388;6.196;2023-02-10T06:51:34;96.67;;;46.90;;
14040;SDS011;7095;51.388;6.196;2023-02-10T06:54:03;95.33;;;49.47;;
14040;SDS011;7095;51.388;6.196;2023-02-10T06:56:31;106.07;;;49.27;;
14040;SDS011;7095;51.388;6.196;2023-02-10T06:59:00;100.03;;;50.07;;
14040;SDS011;7095;51.388;6.196;2023-02-10T07:01:28;97.63;;;47.50;;
14040;SDS011;7095;51.388;6.196;2023-02-10T07:03:57;101.53;;;50.30;;
14040;SDS011;7095;51.388;6.196;2023-02-10T07:06:26;108.43;;;49.47;;
14040;SDS011;7095;51.388;6.196;2023-02-10T07:08:55;106.63;;;52.27;;
14040;SDS011;7095;51.388;6.196;2023-02-10T07:11:23;108.10;;;50.17;;
14040;SDS011;7095;51.388;6.196;2023-02-10T07:13:52;107.83;;;51.73;;
14040;SDS011;7095;51.388;6.196;2023-02-10T07:16:20;110.53;;;52.63;;
14040;SDS011;7095;51.388;6.196;2023-02-10T07:18:49;106.20;;;51.13;;
14040;SDS011;7095;51.388;6.196;2023-02-10T07:21:17;110.77;;;55.10;;
14040;SDS011;7095;51.388;6.196;2023-02-10T07:23:47;118.70;;;56.87;;
14040;SDS011;7095;51.388;6.196;2023-02-10T07:26:15;110.90;;;54.73;;
14040;SDS011;7095;51.388;6.196;2023-02-10T07:28:45;116.23;;;55.40;;
14040;SDS011;7095;51.388;6.196;2023-02-10T07:31:13;127.47;;;55.13;;
14040;SDS011;7095;51.388;6.196;2023-02-10T07:33:42;136.23;;;58.03;;
14040;SDS011;7095;51.388;6.196;2023-02-10T07:36:11;145.43;;;57.13;;
14040;SDS011;7095;51.388;6.196;2023-02-10T07:38:40;179.30;;;61.87;;
14040;SDS011;7095;51.388;6.196;2023-02-10T07:41:09;184.87;;;63.27;;
14040;SDS011;7095;51.388;6.196;2023-02-10T07:43:38;178.37;;;62.70;;
14040;SDS011;7095;51.388;6.196;2023-02-10T07:46:14;179.13;;;63.97;;
14040;SDS011;7095;51.388;6.196;2023-02-10T07:48:42;187.53;;;64.97;;
14040;SDS011;7095;51.388;6.196;2023-02-10T07:51:11;169.30;;;60.77;;
14040;SDS011;7095;51.388;6.196;2023-02-10T07:53:39;166.13;;;60.67;;
14040;SDS011;7095;51.388;6.196;2023-02-10T07:56:10;172.10;;;62.50;;
14040;SDS011;7095;51.388;6.196;2023-02-10T07:58:39;163.63;;;63.63;;
14040;SDS011;7095;51.388;6.196;2023-02-10T08:01:07;176.57;;;66.63;;
14040;SDS011;7095;51.388;6.196;2023-02-10T08:03:37;176.20;;;66.67;;
14040;SDS011;7095;51.388;6.196;2023-02-10T08:06:06;180.87;;;65.83;;
14040;SDS011;7095;51.388;6.196;2023-02-10T08:08:35;181.30;;;64.03;;
14040;SDS011;7095;51.388;6.196;2023-02-10T08:11:04;173.10;;;63.40;;
14040;SDS011;7095;51.388;6.196;2023-02-10T08:13:34;162.80;;;61.80;;
14040;SDS011;7095;51.388;6.196;2023-02-10T08:16:03;174.80;;;62.77;;
14040;SDS011;7095;51.388;6.196;2023-02-10T08:18:34;186.67;;;59.10;;
14040;SDS011;7095;51.388;6.196;2023-02-10T08:21:03;203.60;;;60.37;;
14040;SDS011;7095;51.388;6.196;2023-02-10T08:23:32;234.27;;;64.80;;
14040;SDS011;7095;51.388;6.196;2023-02-10T08:26:03;229.17;;;63.73;;
14040;SDS011;7095;51.388;6.196;2023-02-10T08:28:35;256.53;;;63.83;;
14040;SDS011;7095;51.388;6.196;2023-02-10T08:31:05;241.47;;;62.30;;
14040;SDS011;7095;51.388;6.196;2023-02-10T08:33:36;247.27;;;62.57;;
14040;SDS011;7095;51.388;6.196;2023-02-10T08:36:14;233.17;;;63.17;;
14040;SDS011;7095;51.388;6.196;2023-02-10T08:38:45;223.27;;;60.50;;
14040;SDS011;7095;51.388;6.196;2023-02-10T08:41:15;245.00;;;63.60;;
14040;SDS011;7095;51.388;6.196;2023-02-10T08:43:45;260.57;;;63.90;;
14040;SDS011;7095;51.388;6.196;2023-02-10T08:46:14;266.10;;;63.90;;
14040;SDS011;7095;51.388;6.196;2023-02-10T08:48:42;248.03;;;65.37;;
14040;SDS011;7095;51.388;6.196;2023-02-10T08:51:11;231.30;;;62.50;;
14040;SDS011;7095;51.388;6.196;2023-02-10T08:53:41;262.20;;;65.20;;
14040;SDS011;7095;51.388;6.196;2023-02-10T08:56:11;258.97;;;67.00;;
14040;SDS011;7095;51.388;6.196;2023-02-10T08:58:42;244.03;;;66.33;;
14040;SDS011;7095;51.388;6.196;2023-02-10T09:01:13;247.93;;;67.73;;
14040;SDS011;7095;51.388;6.196;2023-02-10T09:03:43;231.77;;;67.50;;
14040;SDS011;7095;51.388;6.196;2023-02-10T09:06:12;238.30;;;66.63;;
14040;SDS011;7095;51.388;6.196;2023-02-10T09:08:42;241.97;;;71.53;;
14040;SDS011;7095;51.388;6.196;2023-02-10T09:11:13;241.93;;;67.13;;
14040;SDS011;7095;51.388;6.196;2023-02-10T09:13:42;231.33;;;67.90;;
14040;SDS011;7095;51.388;6.196;2023-02-10T09:16:12;232.13;;;68.70;;
14040;SDS011;7095;51.388;6.196;2023-02-10T09:18:40;230.30;;;73.33;;
14040;SDS011;7095;51.388;6.196;2023-02-10T09:21:09;204.60;;;66.40;;
14040;SDS011;7095;51.388;6.196;2023-02-10T09:23:38;214.97;;;72.40;;
14040;SDS011;7095;51.388;6.196;2023-02-10T09:26:07;197.40;;;68.53;;
14040;SDS011;7095;51.388;6.196;2023-02-10T09:28:35;180.20;;;67.67;;
14040;SDS011;7095;51.388;6.196;2023-02-10T09:31:04;171.33;;;67.37;;
14040;SDS011;7095;51.388;6.196;2023-02-10T09:33:36;162.63;;;66.57;;
14040;SDS011;7095;51.388;6.196;2023-02-10T09:36:05;165.23;;;69.97;;
14040;SDS011;7095;51.388;6.196;2023-02-10T09:38:35;157.70;;;68.67;;
14040;SDS011;7095;51.388;6.196;2023-02-10T09:41:08;167.83;;;69.13;;
14040;SDS011;7095;51.388;6.196;2023-02-10T09:43:47;150.83;;;63.73;;
14040;SDS011;7095;51.388;6.196;2023-02-10T09:46:28;143.63;;;62.30;;
14040;SDS011;7095;51.388;6.196;2023-02-10T09:49:14;152.57;;;67.10;;
14040;SDS011;7095;51.388;6.196;2023-02-10T09:51:55;165.23;;;65.47;;
14040;SDS011;7095;51.388;6.196;2023-02-10T09:54:30;162.00;;;66.50;;
14040;SDS011;7095;51.388;6.196;2023-02-10T09:57:00;148.87;;;62.30;;
14040;SDS011;7095;51.388;6.196;2023-02-10T09:59:31;140.27;;;59.17;;
14040;SDS011;7095;51.388;6.196;2023-02-10T10:02:10;144.07;;;60.53;;
14040;SDS011;7095;51.388;6.196;2023-02-10T10:04:45;136.53;;;61.60;;
14040;SDS011;7095;51.388;6.196;2023-02-10T10:07:17;127.37;;;61.00;;
14040;SDS011;7095;51.388;6.196;2023-02-10T10:09:52;119.60;;;58.87;;
14040;SDS011;7095;51.388;6.196;2023-02-10T10:12:27;115.90;;;56.63;;
14040;SDS011;7095;51.388;6.196;2023-02-10T10:14:56;123.73;;;60.97;;
14040;SDS011;7095;51.388;6.196;2023-02-10T10:17:30;118.73;;;60.03;;
14040;SDS011;7095;51.388;6.196;2023-02-10T10:20:16;119.37;;;59.73;;
14040;SDS011;7095;51.388;6.196;2023-02-10T10:23:02;110.03;;;55.03;;
14040;SDS011;7095;51.388;6.196;2023-02-10T10:25:49;120.13;;;54.73;;
14040;SDS011;7095;51.388;6.196;2023-02-10T10:28:29;107.00;;;54.50;;
14040;SDS011;7095;51.388;6.196;2023-02-10T10:31:07;106.87;;;55.57;;
14040;SDS011;7095;51.388;6.196;2023-02-10T10:33:39;106.27;;;54.30;;
14040;SDS011;7095;51.388;6.196;2023-02-10T10:36:15;97.80;;;52.07;;
14040;SDS011;7095;51.388;6.196;2023-02-10T10:38:47;97.07;;;53.67;;
14040;SDS011;7095;51.388;6.196;2023-02-10T10:41:18;98.87;;;50.53;;
14040;SDS011;7095;51.388;6.196;2023-02-10T10:43:51;95.10;;;49.63;;
14040;SDS011;7095;51.388;6.196;2023-02-10T10:46:23;88.47;;;49.40;;
14040;SDS011;7095;51.388;6.196;2023-02-10T10:48:56;92.43;;;48.90;;
14040;SDS011;7095;51.388;6.196;2023-02-10T10:51:26;83.63;;;46.80;;
14040;SDS011;7095;51.388;6.196;2023-02-10T10:53:55;87.87;;;48.20;;
14040;SDS011;7095;51.388;6.196;2023-02-10T10:56:27;84.67;;;47.30;;
14040;SDS011;7095;51.388;6.196;2023-02-10T10:59:03;86.17;;;43.80;;
14040;SDS011;7095;51.388;6.196;2023-02-10T11:01:40;83.47;;;45.10;;
14040;SDS011;7095;51.388;6.196;2023-02-10T11:04:11;83.70;;;45.73;;
14040;SDS011;7095;51.388;6.196;2023-02-10T11:06:43;80.87;;;45.73;;
14040;SDS011;7095;51.388;6.196;2023-02-10T11:09:17;74.57;;;44.03;;
14040;SDS011;7095;51.388;6.196;2023-02-10T11:11:49;82.67;;;45.87;;
14040;SDS011;7095;51.388;6.196;2023-02-10T11:14:21;82.77;;;41.93;;
14040;SDS011;7095;51.388;6.196;2023-02-10T11:16:53;77.83;;;41.80;;
14040;SDS011;7095;51.388;6.196;2023-02-10T11:19:28;80.17;;;43.70;;
14040;SDS011;7095;51.388;6.196;2023-02-10T11:22:16;76.70;;;41.90;;
14040;SDS011;7095;51.388;6.196;2023-02-10T11:24:49;75.27;;;40.77;;
14040;SDS011;7095;51.388;6.196;2023-02-10T11:27:19;70.13;;;41.77;;
14040;SDS011;7095;51.388;6.196;2023-02-10T11:29:48;71.00;;;39.70;;
14040;SDS011;7095;51.388;6.196;2023-02-10T11:32:19;72.70;;;41.60;;
14040;SDS011;7095;51.388;6.196;2023-02-10T11:34:50;75.80;;;39.73;;
14040;SDS011;7095;51.388;6.196;2023-02-10T11:37:22;67.93;;;37.73;;
14040;SDS011;7095;51.388;6.196;2023-02-10T11:39:55;70.50;;;38.20;;
14040;SDS011;7095;51.388;6.196;2023-02-10T11:42:27;65.67;;;38.23;;
14040;SDS011;7095;51.388;6.196;2023-02-10T11:45:00;66.50;;;38.30;;
14040;SDS011;7095;51.388;6.196;2023-02-10T11:47:31;71.40;;;39.03;;
14040;SDS011;7095;51.388;6.196;2023-02-10T11:50:00;67.43;;;38.30;;
14040;SDS011;7095;51.388;6.196;2023-02-10T11:52:30;65.67;;;38.00;;
14040;SDS011;7095;51.388;6.196;2023-02-10T11:55:02;66.20;;;36.33;;
14040;SDS011;7095;51.388;6.196;2023-02-10T11:57:33;60.83;;;33.27;;
14040;SDS011;7095;51.388;6.196;2023-02-10T12:00:28;64.73;;;34.47;;
14040;SDS011;7095;51.388;6.196;2023-02-10T12:06:03;59.27;;;32.47;;
14040;SDS011;7095;51.388;6.196;2023-02-10T12:08:40;58.53;;;33.40;;
14040;SDS011;7095;51.388;6.196;2023-02-10T12:11:16;63.77;;;33.67;;
14040;SDS011;7095;51.388;6.196;2023-02-10T12:13:58;58.77;;;32.13;;
14040;SDS011;7095;51.388;6.196;2023-02-10T12:16:32;60.17;;;31.97;;
14040;SDS011;7095;51.388;6.196;2023-02-10T12:19:12;63.03;;;35.73;;
14040;SDS011;7095;51.388;6.196;2023-02-10T12:21:56;56.13;;;33.27;;
14040;SDS011;7095;51.388;6.196;2023-02-10T12:24:40;64.20;;;34.00;;
14040;SDS011;7095;51.388;6.196;2023-02-10T12:27:25;54.27;;;33.30;;
14040;SDS011;7095;51.388;6.196;2023-02-10T12:30:01;60.30;;;34.83;;
14040;SDS011;7095;51.388;6.196;2023-02-10T12:32:38;62.30;;;32.80;;
14040;SDS011;7095;51.388;6.196;2023-02-10T12:35:21;60.27;;;34.47;;
14040;SDS011;7095;51.388;6.196;2023-02-10T12:38:00;52.40;;;31.33;;
14040;SDS011;7095;51.388;6.196;2023-02-10T12:40:47;56.47;;;34.53;;
14040;SDS011;7095;51.388;6.196;2023-02-10T12:43:32;61.17;;;33.17;;
14040;SDS011;7095;51.388;6.196;2023-02-10T12:46:11;55.23;;;33.57;;
14040;SDS011;7095;51.388;6.196;2023-02-10T12:48:48;52.07;;;31.73;;
14040;SDS011;7095;51.388;6.196;2023-02-10T12:51:28;55.53;;;32.80;;
14040;SDS011;7095;51.388;6.196;2023-02-10T12:54:07;51.33;;;31.57;;
14040;SDS011;7095;51.388;6.196;2023-02-10T12:56:43;59.33;;;33.47;;
14040;SDS011;7095;51.388;6.196;2023-02-10T12:59:15;57.00;;;33.23;;
14040;SDS011;7095;51.388;6.196;2023-02-10T13:01:49;60.47;;;32.87;;
14040;SDS011;7095;51.388;6.196;2023-02-10T13:04:21;57.03;;;33.10;;
14040;SDS011;7095;51.388;6.196;2023-02-10T13:06:54;57.43;;;32.87;;
14040;SDS011;7095;51.388;6.196;2023-02-10T13:09:28;52.60;;;33.33;;
14040;SDS011;7095;51.388;6.196;2023-02-10T13:12:07;61.30;;;34.43;;
14040;SDS011;7095;51.388;6.196;2023-02-10T13:14:43;57.27;;;34.33;;
14040;SDS011;7095;51.388;6.196;2023-02-10T13:17:14;57.07;;;34.47;;
14040;SDS011;7095;51.388;6.196;2023-02-10T13:19:45;52.87;;;34.40;;
14040;SDS011;7095;51.388;6.196;2023-02-10T13:22:22;53.53;;;34.43;;
14040;SDS011;7095;51.388;6.196;2023-02-10T13:25:00;56.80;;;34.67;;
14040;SDS011;7095;51.388;6.196;2023-02-10T13:27:41;54.97;;;35.07;;
14040;SDS011;7095;51.388;6.196;2023-02-10T13:30:31;56.43;;;34.67;;
14040;SDS011;7095;51.388;6.196;2023-02-10T13:33:13;52.27;;;33.33;;
14040;SDS011;7095;51.388;6.196;2023-02-10T13:35:48;55.53;;;33.37;;
14040;SDS011;7095;51.388;6.196;2023-02-10T13:38:18;49.50;;;31.27;;
14040;SDS011;7095;51.388;6.196;2023-02-10T13:40:51;46.80;;;30.50;;
14040;SDS011;7095;51.388;6.196;2023-02-10T13:43:42;45.73;;;28.20;;
14040;SDS011;7095;51.388;6.196;2023-02-10T13:46:18;37.10;;;25.13;;
14040;SDS011;7095;51.388;6.196;2023-02-10T13:48:51;35.43;;;23.53;;
14040;SDS011;7095;51.388;6.196;2023-02-10T13:51:28;31.70;;;21.20;;
14040;SDS011;7095;51.388;6.196;2023-02-10T13:53:59;35.07;;;22.43;;
14040;SDS011;7095;51.388;6.196;2023-02-10T13:56:28;34.97;;;22.30;;
14040;SDS011;7095;51.388;6.196;2023-02-10T13:59:00;33.63;;;21.23;;
14040;SDS011;7095;51.388;6.196;2023-02-10T14:01:31;39.97;;;22.50;;
14040;SDS011;7095;51.388;6.196;2023-02-10T14:04:02;32.63;;;22.63;;
14040;SDS011;7095;51.388;6.196;2023-02-10T14:06:33;32.17;;;21.97;;
14040;SDS011;7095;51.388;6.196;2023-02-10T14:09:05;36.13;;;22.70;;
14040;SDS011;7095;51.388;6.196;2023-02-10T14:11:46;37.43;;;23.30;;
14040;SDS011;7095;51.388;6.196;2023-02-10T14:14:21;32.17;;;22.63;;
14040;SDS011;7095;51.388;6.196;2023-02-10T14:17:02;36.53;;;22.60;;
14040;SDS011;7095;51.388;6.196;2023-02-10T14:19:33;34.87;;;23.10;;
14040;SDS011;7095;51.388;6.196;2023-02-10T14:22:04;38.17;;;22.90;;
14040;SDS011;7095;51.388;6.196;2023-02-10T14:24:35;43.97;;;23.20;;
14040;SDS011;7095;51.388;6.196;2023-02-10T14:27:16;36.73;;;24.07;;
14040;SDS011;7095;51.388;6.196;2023-02-10T14:29:48;36.97;;;23.33;;
14040;SDS011;7095;51.388;6.196;2023-02-10T14:32:20;37.77;;;24.17;;
14040;SDS011;7095;51.388;6.196;2023-02-10T14:34:52;33.87;;;23.03;;
14040;SDS011;7095;51.388;6.196;2023-02-10T14:37:23;31.77;;;21.67;;
14040;SDS011;7095;51.388;6.196;2023-02-10T14:39:53;27.80;;;19.23;;
14040;SDS011;7095;51.388;6.196;2023-02-10T14:42:24;31.33;;;21.07;;
14040;SDS011;7095;51.388;6.196;2023-02-10T14:44:57;33.13;;;20.33;;
14040;SDS011;7095;51.388;6.196;2023-02-10T14:47:27;29.90;;;21.03;;
14040;SDS011;7095;51.388;6.196;2023-02-10T14:50:00;33.00;;;21.13;;
14040;SDS011;7095;51.388;6.196;2023-02-10T14:52:29;32.27;;;20.60;;
14040;SDS011;7095;51.388;6.196;2023-02-10T14:55:21;31.00;;;20.50;;
14040;SDS011;7095;51.388;6.196;2023-02-10T14:57:58;30.53;;;19.67;;
14040;SDS011;7095;51.388;6.196;2023-02-10T15:00:34;33.37;;;21.33;;
14040;SDS011;7095;51.388;6.196;2023-02-10T15:03:03;35.20;;;21.60;;
14040;SDS011;7095;51.388;6.196;2023-02-10T15:05:34;30.37;;;20.43;;